createdAt,value
2022-11-28T00:01:30.368Z,6.46
2022-11-28T00:03:57.223Z,6.45
2022-11-28T00:06:26.966Z,6.44
2022-11-28T00:08:54.590Z,6.44
2022-11-28T00:11:22.830Z,6.44
2022-11-28T00:13:49.862Z,6.44
2022-11-28T00:16:21.437Z,6.45
2022-11-28T00:18:53.468Z,6.46
2022-11-28T00:21:20.649Z,6.46
2022-11-28T00:23:48.585Z,6.50
2022-11-28T00:26:22.763Z,6.54
2022-11-28T00:28:49.626Z,6.51
2022-11-28T00:31:22.266Z,6.50
2022-11-28T00:33:49.417Z,6.49
2022-11-28T00:36:16.420Z,6.48
2022-11-28T00:38:43.062Z,6.48
2022-11-28T00:41:15.501Z,6.49
2022-11-28T00:43:43.908Z,6.51
2022-11-28T00:46:11.439Z,6.50
2022-11-28T00:48:38.004Z,6.47
2022-11-28T00:51:09.235Z,6.46
2022-11-28T00:53:36.905Z,6.45
2022-11-28T00:56:07.781Z,6.44
2022-11-28T00:58:35.621Z,6.45
2022-11-28T01:01:12.007Z,6.45
2022-11-28T01:03:39.109Z,6.43
2022-11-28T01:06:06.763Z,6.43
2022-11-28T01:08:33.770Z,6.43
2022-11-28T01:11:00.596Z,6.45
2022-11-28T01:13:27.269Z,6.43
2022-11-28T01:15:54.162Z,6.44
2022-11-28T01:18:20.623Z,6.45
2022-11-28T01:20:47.146Z,6.45
2022-11-28T01:23:13.675Z,6.46
2022-11-28T01:25:40.127Z,6.45
2022-11-28T01:28:06.630Z,6.45
2022-11-28T01:30:33.789Z,6.45
2022-11-28T01:33:00.237Z,6.46
2022-11-28T01:35:26.659Z,6.45
2022-11-28T01:37:53.188Z,6.48
2022-11-28T01:40:19.730Z,6.47
2022-11-28T01:42:46.169Z,6.48
2022-11-28T01:45:25.141Z,6.46
2022-11-28T01:47:55.032Z,6.45
2022-11-28T01:50:22.668Z,6.45
2022-11-28T01:52:55.232Z,6.45
2022-11-28T01:55:27.204Z,6.45
2022-11-28T01:57:55.601Z,6.45
2022-11-28T02:00:22.931Z,6.45
2022-11-28T02:02:58.885Z,6.45
2022-11-28T02:05:25.554Z,6.46
2022-11-28T02:07:52.522Z,6.46
2022-11-28T02:10:32.550Z,6.46
2022-11-28T02:13:33.212Z,6.48
2022-11-28T02:16:12.352Z,6.47
2022-11-28T02:18:59.152Z,6.48
2022-11-28T02:21:53.440Z,6.47
2022-11-28T02:24:37.968Z,6.48
2022-11-28T02:27:32.099Z,6.48
2022-11-28T02:30:10.746Z,6.49
2022-11-28T02:32:44.966Z,6.50
2022-11-28T02:35:29.047Z,6.49
2022-11-28T02:38:13.883Z,6.48
2022-11-28T02:40:48.383Z,6.48
2022-11-28T02:43:20.630Z,6.49
2022-11-28T02:46:06.705Z,6.48
2022-11-28T02:48:45.783Z,6.49
2022-11-28T02:51:18.988Z,6.47
2022-11-28T02:53:46.582Z,6.46
2022-11-28T02:56:13.279Z,6.46
2022-11-28T02:58:39.974Z,6.46
2022-11-28T03:01:12.434Z,6.47
2022-11-28T03:03:47.944Z,6.44
2022-11-28T03:06:35.451Z,6.44
2022-11-28T03:09:20.581Z,6.42
2022-11-28T03:11:53.287Z,6.41
2022-11-28T03:14:28.364Z,6.39
2022-11-28T03:16:54.748Z,6.42
2022-11-28T03:19:33.225Z,6.41
2022-11-28T03:22:25.901Z,6.40
2022-11-28T03:25:09.397Z,6.37
2022-11-28T03:27:40.617Z,6.36
2022-11-28T03:30:19.402Z,6.37
2022-11-28T03:32:47.843Z,6.35
2022-11-28T03:35:19.359Z,6.34
2022-11-28T03:37:53.849Z,6.35
2022-11-28T03:40:27.823Z,6.33
2022-11-28T03:42:59.465Z,6.32
2022-11-28T03:45:30.326Z,6.34
2022-11-28T03:48:04.880Z,6.32
2022-11-28T03:50:42.048Z,6.31
2022-11-28T03:53:26.062Z,6.30
2022-11-28T03:56:08.010Z,6.29
2022-11-28T03:58:38.060Z,6.29
2022-11-28T04:01:14.316Z,6.31
2022-11-28T04:03:52.075Z,6.31
2022-11-28T04:06:44.589Z,6.29
2022-11-28T04:09:18.205Z,6.28
2022-11-28T04:11:51.837Z,6.28
2022-11-28T04:14:18.191Z,6.28
2022-11-28T04:16:55.666Z,6.29
2022-11-28T04:19:31.967Z,6.27
2022-11-28T04:22:03.388Z,6.26
2022-11-28T04:24:36.518Z,6.28
2022-11-28T04:27:08.545Z,6.28
2022-11-28T04:29:40.746Z,6.28
2022-11-28T04:32:09.209Z,6.28
2022-11-28T04:34:37.030Z,6.26
2022-11-28T04:37:09.820Z,6.26
2022-11-28T04:39:40.759Z,6.27
2022-11-28T04:42:31.024Z,6.27
2022-11-28T04:45:02.685Z,6.27
2022-11-28T04:47:29.733Z,6.28
2022-11-28T04:49:56.486Z,6.27
2022-11-28T04:52:27.884Z,6.28
2022-11-28T04:55:00.839Z,6.28
2022-11-28T04:57:34.127Z,6.27
2022-11-28T05:00:04.617Z,6.27
2022-11-28T05:02:32.710Z,6.26
2022-11-28T05:04:59.874Z,6.25
2022-11-28T05:07:26.333Z,6.25
2022-11-28T05:09:52.913Z,6.24
2022-11-28T05:12:19.396Z,6.23
2022-11-28T05:14:45.846Z,6.24
2022-11-28T05:17:13.166Z,6.25
2022-11-28T05:19:39.720Z,6.24
2022-11-28T05:22:06.415Z,6.23
2022-11-28T05:24:32.864Z,6.21
2022-11-28T05:26:59.287Z,6.21
2022-11-28T05:29:25.700Z,6.23
2022-11-28T05:31:52.189Z,6.23
2022-11-28T05:34:18.701Z,6.22
2022-11-28T05:36:45.127Z,6.22
2022-11-28T05:39:11.539Z,6.21
2022-11-28T05:41:37.984Z,6.20
2022-11-28T05:44:04.476Z,6.21
2022-11-28T05:46:30.901Z,6.18
2022-11-28T05:48:57.760Z,6.19
2022-11-28T05:51:24.453Z,6.19
2022-11-28T05:53:51.032Z,6.20
2022-11-28T05:56:18.849Z,6.17
2022-11-28T05:58:45.754Z,6.18
2022-11-28T06:01:31.805Z,6.19
2022-11-28T06:04:01.080Z,6.18
2022-11-28T06:06:29.933Z,6.18
2022-11-28T06:08:56.990Z,6.17
2022-11-28T06:11:26.147Z,6.16
2022-11-28T06:13:53.139Z,6.15
2022-11-28T06:16:27.841Z,6.16
2022-11-28T06:19:00.531Z,6.14
2022-11-28T06:21:29.245Z,6.14
2022-11-28T06:23:57.872Z,6.14
2022-11-28T06:26:25.911Z,6.13
2022-11-28T06:28:52.414Z,6.14
2022-11-28T06:31:24.589Z,6.13
2022-11-28T06:33:51.273Z,6.11
2022-11-28T06:36:19.040Z,6.10
2022-11-28T06:38:45.992Z,6.09
2022-11-28T06:41:15.124Z,6.10
2022-11-28T06:43:41.941Z,6.09
2022-11-28T06:46:16.140Z,6.09
2022-11-28T06:48:42.873Z,6.08
2022-11-28T06:51:09.440Z,6.09
2022-11-28T06:53:36.433Z,6.10
2022-11-28T06:56:14.242Z,6.13
2022-11-28T06:58:41.628Z,6.11
2022-11-28T07:01:14.537Z,6.15
2022-11-28T07:03:41.597Z,6.14
2022-11-28T07:06:09.054Z,6.16
2022-11-28T07:08:36.419Z,6.17
2022-11-28T07:11:11.279Z,6.17
2022-11-28T07:13:38.584Z,6.17
2022-11-28T07:16:05.634Z,6.18
2022-11-28T07:18:32.315Z,6.19
2022-11-28T07:20:58.944Z,6.21
2022-11-28T07:23:25.707Z,6.21
2022-11-28T07:25:58.478Z,6.22
2022-11-28T07:28:24.927Z,6.22
2022-11-28T07:31:00.699Z,6.22
2022-11-28T07:33:27.655Z,6.24
2022-11-28T07:35:54.138Z,6.24
2022-11-28T07:38:20.769Z,6.24
2022-11-28T07:40:47.194Z,6.26
2022-11-28T07:43:13.641Z,6.25
2022-11-28T07:45:59.334Z,6.24
2022-11-28T07:48:26.513Z,6.26
2022-11-28T07:50:52.989Z,6.28
2022-11-28T07:53:19.498Z,6.28
2022-11-28T07:55:46.013Z,6.31
2022-11-28T07:58:12.465Z,6.31
2022-11-28T08:00:38.980Z,6.32
2022-11-28T08:03:05.628Z,6.32
2022-11-28T08:05:33.076Z,6.33
2022-11-28T08:07:59.559Z,6.33
2022-11-28T08:10:26.232Z,6.36
2022-11-28T08:12:52.742Z,6.35
2022-11-28T08:15:19.169Z,6.37
2022-11-28T08:17:45.739Z,6.39
2022-11-28T08:20:12.496Z,6.38
2022-11-28T08:22:38.975Z,6.41
2022-11-28T08:25:05.772Z,6.42
2022-11-28T08:27:32.994Z,6.42
2022-11-28T08:29:59.433Z,6.41
2022-11-28T08:32:25.905Z,6.42
2022-11-28T08:34:52.385Z,6.44
2022-11-28T08:37:18.880Z,6.43
2022-11-28T08:39:45.627Z,6.45
2022-11-28T08:42:14.398Z,6.46
2022-11-28T08:44:40.778Z,6.48
2022-11-28T08:47:07.206Z,6.50
2022-11-28T08:49:36.506Z,6.49
2022-11-28T08:52:04.642Z,6.48
2022-11-28T08:54:31.565Z,6.50
2022-11-28T08:56:58.986Z,6.51
2022-11-28T08:59:25.444Z,6.52
2022-11-28T09:01:55.426Z,6.53
2022-11-28T09:04:23.793Z,6.54
2022-11-28T09:06:51.037Z,6.54
2022-11-28T09:09:17.676Z,6.55
2022-11-28T09:11:44.632Z,6.55
2022-11-28T09:14:11.511Z,6.57
2022-11-28T09:16:39.826Z,6.57
2022-11-28T09:19:09.085Z,6.57
2022-11-28T09:21:35.605Z,6.58
2022-11-28T09:24:02.060Z,6.57
2022-11-28T09:26:29.867Z,6.57
2022-11-28T09:28:56.347Z,6.57
2022-11-28T09:31:23.227Z,6.58
2022-11-28T09:33:49.838Z,6.59
2022-11-28T09:36:19.621Z,6.63
2022-11-28T09:38:46.272Z,6.64
2022-11-28T09:41:53.841Z,6.63
2022-11-28T09:44:29.258Z,6.63
2022-11-28T09:47:00.397Z,6.62
2022-11-28T09:49:40.592Z,6.63
2022-11-28T09:52:07.589Z,6.63
2022-11-28T09:54:48.030Z,6.64
2022-11-28T09:57:39.534Z,6.64
2022-11-28T10:00:16.799Z,6.66
2022-11-28T10:02:52.480Z,6.69
2022-11-28T10:05:36.105Z,6.71
2022-11-28T10:08:32.076Z,6.69
2022-11-28T10:11:05.004Z,6.71
2022-11-28T10:14:08.806Z,6.69
2022-11-28T10:17:10.986Z,6.72
2022-11-28T10:19:54.184Z,6.76
2022-11-28T10:22:33.935Z,6.76
2022-11-28T10:25:06.205Z,6.79
2022-11-28T10:27:36.156Z,6.81
2022-11-28T10:30:07.784Z,6.82
2022-11-28T10:32:42.389Z,6.81
2022-11-28T10:35:30.654Z,6.82
2022-11-28T10:37:57.208Z,6.83
2022-11-28T10:40:49.497Z,6.85
2022-11-28T10:43:34.489Z,6.87
2022-11-28T10:46:16.227Z,6.90
2022-11-28T10:49:02.933Z,6.89
2022-11-28T10:51:55.265Z,6.91
2022-11-28T10:54:52.896Z,6.93
2022-11-28T10:57:39.763Z,6.93
2022-11-28T11:00:12.367Z,6.92
2022-11-28T11:02:58.693Z,6.94
2022-11-28T11:05:28.218Z,6.98
2022-11-28T11:08:14.993Z,6.98
2022-11-28T11:11:00.045Z,6.99
2022-11-28T11:13:30.065Z,7.02
2022-11-28T11:16:03.415Z,7.02
2022-11-28T11:18:46.670Z,7.01
2022-11-28T11:21:17.221Z,7.02
2022-11-28T11:23:44.942Z,7.04
2022-11-28T11:26:25.655Z,7.05
2022-11-28T11:28:52.650Z,7.05
2022-11-28T11:31:27.844Z,7.07
2022-11-28T11:34:07.050Z,7.06
2022-11-28T11:36:36.278Z,7.07
2022-11-28T11:39:12.269Z,7.05
2022-11-28T11:41:44.118Z,7.04
2022-11-28T11:44:13.761Z,7.04
2022-11-28T11:47:00.870Z,7.04
2022-11-28T11:49:38.776Z,7.03
2022-11-28T11:52:19.931Z,7.04
2022-11-28T11:54:54.673Z,7.02
2022-11-28T11:57:45.815Z,7.01
2022-11-28T12:00:19.818Z,7.04
2022-11-28T12:02:51.970Z,7.04
2022-11-28T12:05:28.708Z,7.03
2022-11-28T12:08:03.372Z,7.02
2022-11-28T12:10:34.348Z,7.02
2022-11-28T12:13:02.672Z,7.02
2022-11-28T12:15:47.068Z,7.03
2022-11-28T12:18:52.042Z,7.04
2022-11-28T12:21:56.623Z,7.05
2022-11-28T12:24:34.001Z,7.05
2022-11-28T12:27:20.885Z,7.04
2022-11-28T12:30:06.031Z,7.02
2022-11-28T12:32:45.422Z,6.99
2022-11-28T12:35:40.061Z,7.01
2022-11-28T12:38:37.509Z,6.99
2022-11-28T12:41:37.175Z,7.01
2022-11-28T12:44:25.838Z,7.04
2022-11-28T12:47:38.962Z,7.01
2022-11-28T12:50:22.075Z,7.03
2022-11-28T12:53:14.874Z,7.06
2022-11-28T12:56:07.573Z,7.06
2022-11-28T12:58:36.398Z,7.08
2022-11-28T13:01:03.237Z,7.11
2022-11-28T13:03:55.334Z,7.11
2022-11-28T13:06:31.501Z,7.08
2022-11-28T13:09:18.954Z,7.10
2022-11-28T13:12:10.171Z,7.11
2022-11-28T13:14:42.565Z,7.13
2022-11-28T13:17:39.032Z,7.13
2022-11-28T13:20:23.590Z,7.14
2022-11-28T13:23:17.957Z,7.14
2022-11-28T13:26:02.531Z,7.15
2022-11-28T13:28:54.361Z,7.14
2022-11-28T13:31:24.432Z,7.15
2022-11-28T13:33:54.261Z,7.14
2022-11-28T13:39:40.187Z,7.14
2022-11-28T13:42:59.600Z,7.15
2022-11-28T13:45:25.144Z,7.16
2022-11-28T13:47:55.742Z,7.16
2022-11-28T13:50:22.913Z,7.16
2022-11-28T13:52:59.591Z,7.16
2022-11-28T13:56:07.206Z,7.19
2022-11-28T13:59:02.609Z,7.19
2022-11-28T14:01:31.914Z,7.19
2022-11-28T14:03:58.865Z,7.19
2022-11-28T14:06:27.735Z,7.20
2022-11-28T14:09:02.502Z,7.24
2022-11-28T14:11:41.197Z,7.26
2022-11-28T14:14:13.680Z,7.28
2022-11-28T14:16:40.170Z,7.27
2022-11-28T14:19:27.873Z,7.30
2022-11-28T14:22:09.056Z,7.30
2022-11-28T14:24:54.806Z,7.30
2022-11-28T14:27:26.430Z,7.30
2022-11-28T14:29:55.786Z,7.31
2022-11-28T14:32:36.956Z,7.30
2022-11-28T14:35:25.099Z,7.31
2022-11-28T14:37:55.089Z,7.31
2022-11-28T14:40:56.285Z,7.31
2022-11-28T14:43:28.365Z,7.31
2022-11-28T14:46:15.194Z,7.35
2022-11-28T14:49:02.708Z,7.36
2022-11-28T14:51:49.127Z,7.36
2022-11-28T14:54:42.371Z,7.35
2022-11-28T14:57:23.352Z,7.38
2022-11-28T14:59:51.091Z,7.37
2022-11-28T15:02:56.335Z,7.36
2022-11-28T15:05:29.820Z,7.36
2022-11-28T15:08:15.006Z,7.34
2022-11-28T15:11:02.745Z,7.36
2022-11-28T15:13:45.970Z,7.37
2022-11-28T15:16:14.718Z,7.36
2022-11-28T15:18:50.649Z,7.36
2022-11-28T15:21:19.623Z,7.35
2022-11-28T15:23:49.267Z,7.35
2022-11-28T15:26:22.082Z,7.35
2022-11-28T15:28:48.615Z,7.35
2022-11-28T15:31:23.108Z,7.35
2022-11-28T15:33:51.253Z,7.34
2022-11-28T15:36:38.256Z,7.35
2022-11-28T15:39:05.189Z,7.35
2022-11-28T15:41:31.766Z,7.36
2022-11-28T15:43:58.387Z,7.37
2022-11-28T15:46:34.723Z,7.37
2022-11-28T15:49:01.769Z,7.36
2022-11-28T15:51:31.375Z,7.37
2022-11-28T15:53:58.539Z,7.38
2022-11-28T15:56:26.005Z,7.39
2022-11-28T15:58:53.479Z,7.40
2022-11-28T16:01:24.096Z,7.40
2022-11-28T16:03:59.262Z,7.38
2022-11-28T16:06:30.553Z,7.38
2022-11-28T16:09:03.897Z,7.39
2022-11-28T16:11:31.629Z,7.40
2022-11-28T16:14:05.978Z,7.41
2022-11-28T16:16:36.475Z,7.41
2022-11-28T16:19:18.658Z,7.40
2022-11-28T16:21:56.057Z,7.41
2022-11-28T16:24:42.767Z,7.39
2022-11-28T16:27:31.566Z,7.39
2022-11-28T16:29:58.033Z,7.41
2022-11-28T16:32:37.932Z,7.41
2022-11-28T16:35:06.040Z,7.41
2022-11-28T16:37:33.023Z,7.41
2022-11-28T16:39:59.400Z,7.42
2022-11-28T16:42:25.915Z,7.43
2022-11-28T16:44:52.535Z,7.42
2022-11-28T16:47:29.660Z,7.42
2022-11-28T16:50:22.997Z,7.43
2022-11-28T16:52:52.139Z,7.43
2022-11-28T16:55:31.799Z,7.43
2022-11-28T16:58:07.379Z,7.44
2022-11-28T17:00:35.243Z,7.42
2022-11-28T17:03:01.976Z,7.44
2022-11-28T17:05:28.679Z,7.42
2022-11-28T17:07:55.515Z,7.45
2022-11-28T17:10:22.096Z,7.46
2022-11-28T17:12:48.637Z,7.45
2022-11-28T17:15:18.780Z,7.46
2022-11-28T17:17:45.205Z,7.46
2022-11-28T17:20:12.704Z,7.47
2022-11-28T17:22:45.364Z,7.47
2022-11-28T17:25:17.058Z,7.47
2022-11-28T17:27:43.868Z,7.49
2022-11-28T17:30:15.483Z,7.49
2022-11-28T17:32:41.992Z,7.49
2022-11-28T17:35:19.869Z,7.50
2022-11-28T17:37:46.307Z,7.51
2022-11-28T17:40:31.346Z,7.51
2022-11-28T17:42:57.820Z,7.51
2022-11-28T17:45:25.442Z,7.52
2022-11-28T17:47:51.945Z,7.53
2022-11-28T17:50:18.477Z,7.53
2022-11-28T17:52:44.926Z,7.56
2022-11-28T17:55:11.373Z,7.55
2022-11-28T17:57:37.905Z,7.54
2022-11-28T18:00:06.703Z,7.55
2022-11-28T18:02:33.199Z,7.55
2022-11-28T18:05:00.509Z,7.54
2022-11-28T18:07:27.047Z,7.54
2022-11-28T18:09:53.686Z,7.57
2022-11-28T18:12:21.075Z,7.57
2022-11-28T18:14:47.580Z,7.55
2022-11-28T18:17:14.135Z,7.55
2022-11-28T18:19:40.628Z,7.55
2022-11-28T18:22:08.573Z,7.57
2022-11-28T18:24:36.189Z,7.57
2022-11-28T18:27:02.761Z,7.57
2022-11-28T18:29:29.220Z,7.57
2022-11-28T18:31:55.694Z,7.57
2022-11-28T18:34:22.349Z,7.57
2022-11-28T18:36:48.869Z,7.56
2022-11-28T18:39:15.816Z,7.57
2022-11-28T18:41:42.789Z,7.57
2022-11-28T18:44:10.966Z,7.57
2022-11-28T18:46:39.195Z,7.59
2022-11-28T18:49:05.756Z,7.58
2022-11-28T18:51:34.493Z,7.61
2022-11-28T18:54:04.486Z,7.59
2022-11-28T18:56:31.533Z,7.59
2022-11-28T18:58:58.408Z,7.59
2022-11-28T19:01:32.752Z,7.62
2022-11-28T19:04:04.007Z,7.62
2022-11-28T19:06:31.575Z,7.63
2022-11-28T19:09:01.143Z,7.63
2022-11-28T19:11:29.483Z,7.67
2022-11-28T19:13:56.614Z,7.65
2022-11-28T19:16:26.137Z,7.65
2022-11-28T19:18:53.262Z,7.65
2022-11-28T19:21:22.656Z,7.68
2022-11-28T19:23:50.221Z,7.69
2022-11-28T19:26:19.615Z,7.68
2022-11-28T19:28:46.934Z,7.69
2022-11-28T19:31:21.743Z,7.70
2022-11-28T19:34:13.879Z,7.70
2022-11-28T19:36:51.242Z,7.68
2022-11-28T19:39:19.495Z,7.72
2022-11-28T19:41:46.765Z,7.70
2022-11-28T19:44:14.360Z,7.71
2022-11-28T19:46:41.930Z,7.71
2022-11-28T19:49:14.300Z,7.70
2022-11-28T19:51:40.853Z,7.70
2022-11-28T19:54:07.449Z,7.74
2022-11-28T19:56:34.344Z,7.73
2022-11-28T19:59:00.836Z,7.71
2022-11-28T20:01:28.308Z,7.73
2022-11-28T20:03:54.969Z,7.71
2022-11-28T20:06:28.175Z,7.73
2022-11-28T20:08:59.389Z,7.73
2022-11-28T20:11:31.996Z,7.72
2022-11-28T20:14:01.171Z,7.72
2022-11-28T20:16:29.787Z,7.72
2022-11-28T20:18:56.999Z,7.75
2022-11-28T20:21:23.695Z,7.74
2022-11-28T20:23:52.654Z,7.73
2022-11-28T20:26:21.443Z,7.73
2022-11-28T20:28:48.510Z,7.74
2022-11-28T20:31:22.673Z,7.74
2022-11-28T20:33:51.150Z,7.75
2022-11-28T20:36:20.366Z,7.74
2022-11-28T20:38:47.378Z,7.74
2022-11-28T20:41:16.534Z,7.75
2022-11-28T20:43:43.472Z,7.74
2022-11-28T20:46:16.761Z,7.73
2022-11-28T20:48:45.827Z,7.77
2022-11-28T20:51:15.907Z,7.74
2022-11-28T20:53:42.635Z,7.76
2022-11-28T20:56:13.364Z,7.75
2022-11-28T20:58:42.860Z,7.75
2022-11-28T21:01:14.889Z,7.74
2022-11-28T21:03:41.710Z,7.76
2022-11-28T21:06:11.300Z,7.74
2022-11-28T21:08:38.663Z,7.76
2022-11-28T21:11:10.931Z,7.74
2022-11-28T21:13:37.770Z,7.77
2022-11-28T21:16:09.699Z,7.76
2022-11-28T21:18:38.053Z,7.76
2022-11-28T21:21:11.930Z,7.77
2022-11-28T21:23:39.000Z,7.78
2022-11-28T21:26:08.798Z,7.78
2022-11-28T21:28:41.254Z,7.77
2022-11-28T21:31:10.853Z,7.76
2022-11-28T21:33:37.468Z,7.79
2022-11-28T21:36:06.129Z,7.76
2022-11-28T21:38:33.255Z,7.78
2022-11-28T21:41:00.665Z,7.77
2022-11-28T21:43:31.373Z,7.77
2022-11-28T21:46:05.606Z,7.77
2022-11-28T21:48:33.399Z,7.77
2022-11-28T21:51:00.835Z,7.76
2022-11-28T21:53:28.438Z,7.77
2022-11-28T21:55:55.545Z,7.77
2022-11-28T21:58:26.676Z,7.77
2022-11-28T22:01:01.885Z,7.78
2022-11-28T22:03:30.431Z,7.77
2022-11-28T22:06:05.147Z,7.77
2022-11-28T22:08:32.218Z,7.78
2022-11-28T22:11:03.634Z,7.79
2022-11-28T22:13:31.583Z,7.79
2022-11-28T22:15:58.496Z,7.79
2022-11-28T22:18:25.002Z,7.79
2022-11-28T22:20:53.203Z,7.80
2022-11-28T22:23:19.773Z,7.79
2022-11-28T22:25:53.107Z,7.79
2022-11-28T22:28:20.350Z,7.78
2022-11-28T22:30:47.256Z,7.79
2022-11-28T22:33:13.708Z,7.80
2022-11-28T22:35:40.252Z,7.81
2022-11-28T22:38:06.747Z,7.81
2022-11-28T22:40:33.161Z,7.80
2022-11-28T22:43:00.010Z,7.81
2022-11-28T22:45:26.571Z,7.81
2022-11-28T22:47:53.002Z,7.81
2022-11-28T22:50:19.511Z,7.82
2022-11-28T22:52:46.029Z,7.82
2022-11-28T22:55:12.719Z,7.81
2022-11-28T22:57:39.234Z,7.82
2022-11-28T23:00:08.789Z,7.81
2022-11-28T23:02:35.956Z,7.80
2022-11-28T23:05:02.633Z,7.82
2022-11-28T23:07:29.250Z,7.81
2022-11-28T23:09:55.840Z,7.82
2022-11-28T23:12:22.288Z,7.81
2022-11-28T23:14:49.053Z,7.81
2022-11-28T23:17:15.587Z,7.82
2022-11-28T23:19:42.388Z,7.82
2022-11-28T23:22:08.872Z,7.82
2022-11-28T23:24:35.505Z,7.82
2022-11-28T23:27:01.945Z,7.82
2022-11-28T23:29:28.406Z,7.82
2022-11-28T23:31:54.914Z,7.82
2022-11-28T23:34:21.457Z,7.83
2022-11-28T23:36:48.430Z,7.83
2022-11-28T23:39:17.711Z,7.83
2022-11-28T23:41:45.574Z,7.80
2022-11-28T23:44:13.684Z,7.81
2022-11-28T23:46:41.019Z,7.81
2022-11-28T23:49:07.699Z,7.82
2022-11-28T23:51:34.490Z,7.81
2022-11-28T23:54:01.077Z,7.80
2022-11-28T23:56:30.978Z,7.81
2022-11-28T23:59:00.997Z,7.82
